KGSH/GSH METAR and TAF weather

Enter ICAO airport designator
Station Type Date Time Source
KGSH METAR 2019/08/22 04:53 UTC NOAA

KGSH 220453Z AUTO 36005KT 10SM -RA BKN033 23/21 A2996 RMK AO2 RAB46 SLP140 P0000 T02280206 402890183 TSNO


Station Type Date Time Source
KGSH Decoded METAR 2019/08/22 04:53 UTC NOAA

Station name not available
Aug 22, 2019 - 12:53 AM EDT / 2019.08.22 0453 UTC
Wind: from the N (360 degrees) at 6 MPH (5 KT):0
Visibility: 10 mile(s):0
Sky conditions: mostly cloudy
Weather: light rain
Precipitation last hour: A trace
Temperature: 73.0 F (22.8 C)
Dew Point: 69.1 F (20.6 C)
Relative Humidity: 87%
Pressure (altimeter): 29.96 in. Hg (1014 hPa)
ob: KGSH 220453Z AUTO 36005KT 10SM -RA BKN033 23/21 A2996 RMK AO2 RAB46 SLP140 P0000 T02280206 402890183 TSNO
cycle: 5

Station Type Date Time Source
KGSH TAF UTC NOAA

Error!

Example: see airport list